McComb, Ohio
Current Conditions -  °F | °C
As of 9:53 PM on Friday 21 Nov 2014 (Local Time) from KFDY Reporting Station
Clear Clear  
Wind Chill:   Ceiling: Unl
Heat Index: 20°   Visibility: 10mi
Dew Point: 11°   Wind: 12mph
Humidity: 68%   Direction: 160°SSE
Pressure: 30.38"   Gusts: NA
Location:  41.11°N, 83.79°W
Report Text: KFDY 220253Z AUTO 16010KT 10SM CLR M07/M12 A3038 RMK AO2 SLP297 T10671117 56019
Loading
Personal Weather Stations






























Interactive Weather Map New forecast layout! Learn more

10-Day Weather Forecast

Advertisements
Track Severe Weather on mobile